createdAt,value
2024-05-09T00:00:26.387Z,54.32
2024-05-09T00:01:35.301Z,54.51
2024-05-09T00:02:37.375Z,54.58
2024-05-09T00:03:41.388Z,54.58
2024-05-09T00:04:43.420Z,54.61
2024-05-09T00:05:45.564Z,54.45
2024-05-09T00:06:47.482Z,54.31
2024-05-09T00:07:49.378Z,54.53
2024-05-09T00:08:53.472Z,54.47
2024-05-09T00:09:55.395Z,54.52
2024-05-09T00:10:57.331Z,54.72
2024-05-09T00:11:59.513Z,54.72
2024-05-09T00:13:02.637Z,54.36
2024-05-09T00:14:07.029Z,54.49
2024-05-09T00:15:09.233Z,54.59
2024-05-09T00:16:13.331Z,54.66
2024-05-09T00:17:15.339Z,54.99
2024-05-09T00:18:20.162Z,54.85
2024-05-09T00:19:22.276Z,55.06
2024-05-09T00:20:35.049Z,55.11
2024-05-09T00:21:43.867Z,55.10
2024-05-09T00:22:48.182Z,55.17
2024-05-09T00:23:50.077Z,55.10
2024-05-09T00:24:51.977Z,55.41
2024-05-09T00:25:56.408Z,55.25
2024-05-09T00:26:58.386Z,55.19
2024-05-09T00:28:03.009Z,55.25
2024-05-09T00:29:04.991Z,55.08
2024-05-09T00:30:14.271Z,55.05
2024-05-09T00:31:19.563Z,55.10
2024-05-09T00:32:23.919Z,55.05
2024-05-09T00:33:26.187Z,55.14
2024-05-09T00:34:30.553Z,55.21
2024-05-09T00:35:32.619Z,55.38
2024-05-09T00:36:36.630Z,55.30
2024-05-09T00:37:38.569Z,55.11
2024-05-09T00:38:42.676Z,55.35
2024-05-09T00:39:44.707Z,55.28
2024-05-09T00:40:46.634Z,55.25
2024-05-09T00:41:48.524Z,55.23
2024-05-09T00:42:52.758Z,55.31
2024-05-09T00:43:54.771Z,55.41
2024-05-09T00:44:58.851Z,55.60
2024-05-09T00:46:02.971Z,55.60
2024-05-09T00:47:05.887Z,55.70
2024-05-09T00:48:10.179Z,55.76
2024-05-09T00:49:13.221Z,55.66
2024-05-09T00:50:19.436Z,55.87
2024-05-09T00:51:30.660Z,55.83
2024-05-09T00:52:32.761Z,55.84
2024-05-09T00:53:36.948Z,56.05
2024-05-09T00:54:39.046Z,55.77
2024-05-09T00:55:43.846Z,55.93
2024-05-09T00:56:46.283Z,56.27
2024-05-09T00:57:48.274Z,56.17
2024-05-09T00:58:51.458Z,56.12
2024-05-09T00:59:56.715Z,56.01
2024-05-09T01:02:22.189Z,57.21
2024-05-09T01:03:27.482Z,57.83
2024-05-09T01:04:29.612Z,57.43
2024-05-09T01:05:32.377Z,57.49
2024-05-09T01:06:34.507Z,57.41
2024-05-09T01:07:36.360Z,57.22
2024-05-09T01:08:40.794Z,57.15
2024-05-09T01:09:42.768Z,57.17
2024-05-09T01:10:46.160Z,57.02
2024-05-09T01:11:50.057Z,57.09
2024-05-09T01:12:52.184Z,57.21
2024-05-09T01:13:54.706Z,56.99
2024-05-09T01:14:59.429Z,57.12
2024-05-09T01:16:01.458Z,57.16
2024-05-09T01:17:03.665Z,57.24
2024-05-09T01:18:11.528Z,56.98
2024-05-09T01:19:26.710Z,57.05
2024-05-09T01:20:39.869Z,56.92
2024-05-09T01:21:47.856Z,56.95
2024-05-09T01:22:54.158Z,56.84
2024-05-09T01:23:59.435Z,56.79
2024-05-09T01:25:01.419Z,56.65
2024-05-09T01:26:03.290Z,56.70
2024-05-09T01:27:05.295Z,56.71
2024-05-09T01:28:07.525Z,56.62
2024-05-09T01:29:09.477Z,56.66
2024-05-09T01:30:17.252Z,56.81
2024-05-09T01:31:23.056Z,56.44
2024-05-09T01:32:27.233Z,56.70
2024-05-09T01:33:31.674Z,56.35
2024-05-09T01:34:33.865Z,56.61
2024-05-09T01:35:35.861Z,56.67
2024-05-09T01:36:37.725Z,56.63
2024-05-09T01:37:41.812Z,56.62
2024-05-09T01:38:43.779Z,56.72
2024-05-09T01:39:47.817Z,56.64
2024-05-09T01:40:50.233Z,56.53
2024-05-09T01:41:54.926Z,56.88
2024-05-09T01:42:56.894Z,56.80
2024-05-09T01:43:58.797Z,56.87
2024-05-09T01:45:05.294Z,56.79
2024-05-09T01:46:16.731Z,56.85
2024-05-09T01:47:21.048Z,56.96
2024-05-09T01:48:27.448Z,56.88
2024-05-09T01:49:29.646Z,56.88
2024-05-09T01:50:38.413Z,56.74
2024-05-09T01:51:43.162Z,56.80
2024-05-09T01:52:44.887Z,57.11
2024-05-09T01:53:49.458Z,56.83
2024-05-09T01:54:51.285Z,57.16
2024-05-09T01:55:53.152Z,57.10
2024-05-09T01:56:55.076Z,57.07
2024-05-09T01:57:57.137Z,57.15
2024-05-09T01:59:01.963Z,56.89
2024-05-09T02:01:56.829Z,56.78
2024-05-09T02:03:14.800Z,56.81
2024-05-09T02:04:19.091Z,56.45
2024-05-09T02:05:21.258Z,56.38
2024-05-09T02:06:23.295Z,56.19
2024-05-09T02:07:25.564Z,56.66
2024-05-09T02:08:27.533Z,55.96
2024-05-09T02:09:29.480Z,56.32
2024-05-09T02:10:33.079Z,56.34
2024-05-09T02:11:43.814Z,56.28
2024-05-09T02:12:45.978Z,56.52
2024-05-09T02:13:47.811Z,56.42
2024-05-09T02:14:51.735Z,56.50
2024-05-09T02:15:56.522Z,56.39
2024-05-09T02:16:58.484Z,56.69
2024-05-09T02:18:00.762Z,56.36
2024-05-09T02:19:07.605Z,56.38
2024-05-09T02:20:13.276Z,56.44
2024-05-09T02:21:20.368Z,56.15
2024-05-09T02:22:22.314Z,56.07
2024-05-09T02:23:24.277Z,56.43
2024-05-09T02:24:26.213Z,56.28
2024-05-09T02:25:30.626Z,56.38
2024-05-09T02:26:32.590Z,56.35
2024-05-09T02:27:36.684Z,56.49
2024-05-09T02:28:38.728Z,56.44
2024-05-09T02:29:40.631Z,56.54
2024-05-09T02:30:42.824Z,56.45
2024-05-09T02:31:49.680Z,56.44
2024-05-09T02:32:51.741Z,56.65
2024-05-09T02:33:54.067Z,56.68
2024-05-09T02:34:56.167Z,56.47
2024-05-09T02:35:58.132Z,56.40
2024-05-09T02:37:05.132Z,56.34
2024-05-09T02:38:08.751Z,56.26
2024-05-09T02:39:10.695Z,56.49
2024-05-09T02:40:14.906Z,56.62
2024-05-09T02:41:22.539Z,56.51
2024-05-09T02:42:24.878Z,56.50
2024-05-09T02:43:29.418Z,56.20
2024-05-09T02:44:33.662Z,56.43
2024-05-09T02:45:38.313Z,56.27
2024-05-09T02:46:40.165Z,56.38
2024-05-09T02:47:42.271Z,56.05
2024-05-09T02:48:44.360Z,56.18
2024-05-09T02:49:46.314Z,56.03
2024-05-09T02:50:48.451Z,56.17
2024-05-09T02:51:50.320Z,56.24
2024-05-09T02:52:52.266Z,56.38
2024-05-09T02:53:54.495Z,56.25
2024-05-09T02:54:56.393Z,56.39
2024-05-09T02:55:58.209Z,56.25
2024-05-09T02:57:00.208Z,56.41
2024-05-09T02:58:04.914Z,56.38
2024-05-09T02:59:06.871Z,56.34
2024-05-09T03:00:15.200Z,56.49
2024-05-09T03:01:20.825Z,56.43
2024-05-09T03:02:22.804Z,56.28
2024-05-09T03:03:25.255Z,56.22
2024-05-09T03:04:27.504Z,56.32
2024-05-09T03:05:29.492Z,56.18
2024-05-09T03:06:31.451Z,56.33
2024-05-09T03:07:33.395Z,56.43
2024-05-09T03:08:40.050Z,56.68
2024-05-09T03:09:50.683Z,56.58
2024-05-09T03:10:52.650Z,56.55
2024-05-09T03:11:57.568Z,56.85
2024-05-09T03:12:59.785Z,56.81
2024-05-09T03:14:02.495Z,56.66
2024-05-09T03:15:07.738Z,56.62
2024-05-09T03:16:09.803Z,56.74
2024-05-09T03:17:11.910Z,56.63
2024-05-09T03:18:15.208Z,56.97
2024-05-09T03:19:17.580Z,56.92
2024-05-09T03:20:23.950Z,56.98
2024-05-09T03:21:29.676Z,56.80
2024-05-09T03:22:31.678Z,56.71
2024-05-09T03:23:33.658Z,56.50
2024-05-09T03:24:35.721Z,56.60
2024-05-09T03:25:38.638Z,56.78
2024-05-09T03:26:44.345Z,56.76
2024-05-09T03:27:48.782Z,56.52
2024-05-09T03:28:50.868Z,56.83
2024-05-09T03:29:52.809Z,56.72
2024-05-09T03:30:54.741Z,56.61
2024-05-09T03:31:57.041Z,56.64
2024-05-09T03:33:01.405Z,56.42
2024-05-09T03:34:03.604Z,56.75
2024-05-09T03:35:06.056Z,56.54
2024-05-09T03:36:11.122Z,56.64
2024-05-09T03:37:14.435Z,56.53
2024-05-09T03:38:16.490Z,56.72
2024-05-09T03:39:18.600Z,56.60
2024-05-09T03:40:23.840Z,56.43
2024-05-09T03:41:28.696Z,56.61
2024-05-09T03:42:30.800Z,56.47
2024-05-09T03:43:32.653Z,56.58
2024-05-09T03:44:36.917Z,56.60
2024-05-09T03:45:38.801Z,56.24
2024-05-09T03:46:41.487Z,56.40
2024-05-09T03:47:43.914Z,56.14
2024-05-09T03:48:46.167Z,56.47
2024-05-09T03:49:49.240Z,56.54
2024-05-09T03:50:51.357Z,56.65
2024-05-09T03:51:53.212Z,56.37
2024-05-09T03:53:01.216Z,56.57
2024-05-09T03:54:05.577Z,56.57
2024-05-09T03:55:08.975Z,56.45
2024-05-09T03:56:10.979Z,56.28
2024-05-09T03:57:12.954Z,56.63
2024-05-09T03:58:14.974Z,56.48
2024-05-09T03:59:16.920Z,56.82
2024-05-09T04:02:29.504Z,57.53
2024-05-09T04:03:32.771Z,57.81
2024-05-09T04:04:35.048Z,58.14
2024-05-09T04:05:38.146Z,58.10
2024-05-09T04:06:40.387Z,57.89
2024-05-09T04:07:45.493Z,58.01
2024-05-09T04:08:47.584Z,57.93
2024-05-09T04:09:49.591Z,57.85
2024-05-09T04:10:52.017Z,57.61
2024-05-09T04:11:54.099Z,57.66
2024-05-09T04:12:56.245Z,57.67
2024-05-09T04:13:58.285Z,58.29
2024-05-09T04:15:00.190Z,57.98
2024-05-09T04:16:02.733Z,57.90
2024-05-09T04:17:05.024Z,57.65
2024-05-09T04:18:07.337Z,57.36
2024-05-09T04:19:09.637Z,57.28
2024-05-09T04:20:21.323Z,57.47
2024-05-09T04:21:31.296Z,57.35
2024-05-09T04:22:33.342Z,57.00
2024-05-09T04:23:38.069Z,57.14
2024-05-09T04:24:40.076Z,56.90
2024-05-09T04:25:43.722Z,56.56
2024-05-09T04:26:45.722Z,56.93
2024-05-09T04:27:50.180Z,56.67
2024-05-09T04:28:52.280Z,56.39
2024-05-09T04:29:55.844Z,56.37
2024-05-09T04:30:57.747Z,56.14
2024-05-09T04:32:02.037Z,56.31
2024-05-09T04:33:04.145Z,56.13
2024-05-09T04:34:06.335Z,56.12
2024-05-09T04:35:08.792Z,55.97
2024-05-09T04:36:10.669Z,55.97
2024-05-09T04:37:12.598Z,56.26
2024-05-09T04:38:15.561Z,55.83
2024-05-09T04:39:17.816Z,56.09
2024-05-09T04:40:28.142Z,56.05
2024-05-09T04:41:35.206Z,56.19
2024-05-09T04:42:39.545Z,56.24
2024-05-09T04:43:41.697Z,56.00
2024-05-09T04:44:45.839Z,55.86
2024-05-09T04:45:47.889Z,55.82
2024-05-09T04:46:52.046Z,55.93
2024-05-09T04:47:57.148Z,55.94
2024-05-09T04:48:59.285Z,56.12
2024-05-09T04:50:01.491Z,55.85
2024-05-09T04:51:07.011Z,55.80
2024-05-09T04:52:09.002Z,55.52
2024-05-09T04:53:16.018Z,55.48
2024-05-09T04:54:26.256Z,55.76
2024-05-09T04:55:36.219Z,55.70
2024-05-09T04:56:38.287Z,55.38
2024-05-09T04:57:40.298Z,55.35
2024-05-09T04:58:42.167Z,55.31
2024-05-09T04:59:44.528Z,55.46
2024-05-09T05:00:46.577Z,55.30
2024-05-09T05:01:48.737Z,55.39
2024-05-09T05:02:50.694Z,55.10
2024-05-09T05:03:55.983Z,55.28
2024-05-09T05:04:59.471Z,55.36
2024-05-09T05:06:01.674Z,55.40
2024-05-09T05:07:06.776Z,55.63
2024-05-09T05:08:12.613Z,55.33
2024-05-09T05:09:14.763Z,55.43
2024-05-09T05:10:25.091Z,55.60
2024-05-09T05:11:31.348Z,55.47
2024-05-09T05:12:54.322Z,55.29
2024-05-09T05:13:56.420Z,55.42
2024-05-09T05:15:00.557Z,55.13
2024-05-09T05:16:02.495Z,55.13
2024-05-09T05:17:05.214Z,54.96
2024-05-09T05:18:07.321Z,54.85
2024-05-09T05:19:12.012Z,54.74
2024-05-09T05:20:24.533Z,55.04
2024-05-09T05:21:33.083Z,55.05
2024-05-09T05:22:34.997Z,54.82
2024-05-09T05:23:37.162Z,54.67
2024-05-09T05:24:41.583Z,54.58
2024-05-09T05:25:43.909Z,54.35
2024-05-09T05:26:46.176Z,54.50
2024-05-09T05:27:48.107Z,54.62
2024-05-09T05:28:51.062Z,54.50
2024-05-09T05:29:53.097Z,54.20
2024-05-09T05:30:54.985Z,54.34
2024-05-09T05:31:56.921Z,54.23
2024-05-09T05:32:58.952Z,53.98
2024-05-09T05:34:00.970Z,54.03
2024-05-09T05:35:02.985Z,53.88
2024-05-09T05:36:05.285Z,53.49
2024-05-09T05:37:07.189Z,53.45
2024-05-09T05:38:10.452Z,53.36
2024-05-09T05:39:12.585Z,53.27
2024-05-09T05:40:24.726Z,53.07
2024-05-09T05:41:30.461Z,53.12
2024-05-09T05:42:32.507Z,53.19
2024-05-09T05:43:34.431Z,52.93
2024-05-09T05:44:36.341Z,52.87
2024-05-09T05:45:39.273Z,52.60
2024-05-09T05:46:43.681Z,52.63
2024-05-09T05:47:48.024Z,52.66
2024-05-09T05:48:50.379Z,52.52
2024-05-09T05:49:52.466Z,52.68
2024-05-09T05:51:01.127Z,52.68
2024-05-09T05:52:04.944Z,52.63
2024-05-09T05:53:08.022Z,52.57
2024-05-09T05:54:10.625Z,52.51
2024-05-09T05:55:12.967Z,52.38
2024-05-09T05:56:14.845Z,52.43
2024-05-09T05:57:17.024Z,52.31
2024-05-09T05:58:22.516Z,52.19
2024-05-09T05:59:24.480Z,52.28
2024-05-09T06:00:34.157Z,52.04
2024-05-09T06:01:39.796Z,52.22
2024-05-09T06:02:44.332Z,52.11
2024-05-09T06:03:46.542Z,52.13
2024-05-09T06:04:51.820Z,51.79
2024-05-09T06:05:53.946Z,52.15
2024-05-09T06:06:55.862Z,51.93
2024-05-09T06:08:00.319Z,52.15
2024-05-09T06:09:02.520Z,52.07
2024-05-09T06:10:09.285Z,51.82
2024-05-09T06:11:16.650Z,51.61
2024-05-09T06:12:18.704Z,51.56
2024-05-09T06:13:25.413Z,51.57
2024-05-09T06:14:27.515Z,51.23
2024-05-09T06:15:29.505Z,51.34
2024-05-09T06:16:31.607Z,51.18
2024-05-09T06:17:34.784Z,51.17
2024-05-09T06:18:41.735Z,51.16
2024-05-09T06:19:43.761Z,51.00
2024-05-09T06:20:46.086Z,51.16
2024-05-09T06:21:48.270Z,50.82
2024-05-09T06:22:52.625Z,50.78
2024-05-09T06:23:54.781Z,50.87
2024-05-09T06:24:56.762Z,50.63
2024-05-09T06:25:58.716Z,50.32
2024-05-09T06:27:01.420Z,50.08
2024-05-09T06:28:04.126Z,49.50
2024-05-09T06:29:06.026Z,49.62
2024-05-09T06:30:12.212Z,49.74
2024-05-09T06:31:22.873Z,49.81
2024-05-09T06:32:24.999Z,49.48
2024-05-09T06:33:27.257Z,49.65
2024-05-09T06:34:29.932Z,49.59
2024-05-09T06:35:32.007Z,49.46
2024-05-09T06:36:33.987Z,49.79
2024-05-09T06:37:36.477Z,49.98
2024-05-09T06:38:41.410Z,50.10
2024-05-09T06:39:45.996Z,49.96
2024-05-09T06:40:47.937Z,50.14
2024-05-09T06:41:50.221Z,50.09
2024-05-09T06:42:54.546Z,49.94
2024-05-09T06:43:56.448Z,49.88
2024-05-09T06:44:58.285Z,49.78
2024-05-09T06:46:00.222Z,49.61
2024-05-09T06:47:04.674Z,49.88
2024-05-09T06:48:07.740Z,49.50
2024-05-09T06:49:13.734Z,49.72
2024-05-09T06:50:23.392Z,49.67
2024-05-09T06:51:29.118Z,49.64
2024-05-09T06:52:31.112Z,49.53
2024-05-09T06:53:33.196Z,49.42
2024-05-09T06:54:35.763Z,49.18
2024-05-09T06:55:38.171Z,49.54
2024-05-09T06:56:40.203Z,49.29
2024-05-09T06:57:45.332Z,49.04
2024-05-09T06:58:50.758Z,49.07
2024-05-09T06:59:52.724Z,48.94
2024-05-09T07:02:13.655Z,49.73
2024-05-09T07:03:21.295Z,50.34
2024-05-09T07:04:23.460Z,50.15
2024-05-09T07:05:25.744Z,49.65
2024-05-09T07:06:27.934Z,49.90
2024-05-09T07:07:29.788Z,49.41
2024-05-09T07:08:31.935Z,49.10
2024-05-09T07:09:37.529Z,49.12
2024-05-09T07:10:41.699Z,48.79
2024-05-09T07:11:46.158Z,48.67
2024-05-09T07:12:48.096Z,48.70
2024-05-09T07:13:52.456Z,48.76
2024-05-09T07:14:55.071Z,48.72
2024-05-09T07:15:57.023Z,48.41
2024-05-09T07:16:59.160Z,48.23
2024-05-09T07:18:20.370Z,48.30
2024-05-09T07:19:23.047Z,48.11
2024-05-09T07:20:33.729Z,48.28
2024-05-09T07:21:36.930Z,48.17
2024-05-09T07:22:41.251Z,47.96
2024-05-09T07:23:45.415Z,48.00
2024-05-09T07:24:48.796Z,47.65
2024-05-09T07:25:50.817Z,47.35
2024-05-09T07:26:52.684Z,47.56
2024-05-09T07:27:57.067Z,47.33
2024-05-09T07:28:59.062Z,47.25
2024-05-09T07:30:00.980Z,47.02
2024-05-09T07:31:02.940Z,47.11
2024-05-09T07:32:06.812Z,46.93
2024-05-09T07:33:15.729Z,46.97
2024-05-09T07:34:18.047Z,46.48
2024-05-09T07:35:22.537Z,46.90
2024-05-09T07:36:27.704Z,46.35
2024-05-09T07:37:29.583Z,45.94
2024-05-09T07:38:31.550Z,45.59
2024-05-09T07:39:35.948Z,45.28
2024-05-09T07:40:38.765Z,45.21
2024-05-09T07:41:43.359Z,44.53
2024-05-09T07:42:47.402Z,44.65
2024-05-09T07:43:49.374Z,45.19
2024-05-09T07:44:51.498Z,44.96
2024-05-09T07:45:56.024Z,45.00
2024-05-09T07:53:32.762Z,44.61
2024-05-09T07:53:57.258Z,43.90
2024-05-09T07:55:01.889Z,43.24
2024-05-09T07:56:04.217Z,43.60
2024-05-09T07:57:06.265Z,42.97
2024-05-09T07:58:08.331Z,43.07
2024-05-09T07:59:10.209Z,42.86
2024-05-09T08:00:17.217Z,42.54
2024-05-09T08:01:20.529Z,42.55
2024-05-09T08:02:24.416Z,42.89
2024-05-09T08:03:26.575Z,43.48
2024-05-09T08:04:28.736Z,43.18
2024-05-09T08:05:30.990Z,42.81
2024-05-09T08:06:33.649Z,43.28
2024-05-09T08:07:37.613Z,43.20
2024-05-09T08:08:39.537Z,43.20
2024-05-09T08:09:41.501Z,43.00
2024-05-09T08:10:43.781Z,43.11
2024-05-09T08:11:45.873Z,43.11
2024-05-09T08:12:47.870Z,42.67
2024-05-09T08:13:49.952Z,42.88
2024-05-09T08:14:53.089Z,42.68
2024-05-09T08:15:54.998Z,42.94
2024-05-09T08:16:59.615Z,42.59
2024-05-09T08:18:01.808Z,42.88
2024-05-09T08:19:07.190Z,42.91
2024-05-09T08:20:15.851Z,42.92
2024-05-09T08:21:22.722Z,42.51
2024-05-09T08:22:24.561Z,42.17
2024-05-09T08:23:26.614Z,41.75
2024-05-09T08:24:28.509Z,42.21
2024-05-09T08:25:30.336Z,41.72
2024-05-09T08:26:32.360Z,41.80
2024-05-09T08:27:34.271Z,41.52
2024-05-09T08:28:36.228Z,41.83
2024-05-09T08:29:38.401Z,42.12
2024-05-09T08:30:40.491Z,41.68
2024-05-09T08:31:42.714Z,41.01
2024-05-09T08:32:46.833Z,41.15
2024-05-09T08:33:50.533Z,41.56
2024-05-09T08:34:52.671Z,41.09
2024-05-09T08:35:54.765Z,41.54
2024-05-09T08:36:57.799Z,41.09
2024-05-09T08:38:04.772Z,41.43
2024-05-09T08:39:06.896Z,41.10
2024-05-09T08:40:19.899Z,41.48
2024-05-09T08:41:32.276Z,41.11
2024-05-09T08:42:37.958Z,40.33
2024-05-09T08:43:42.145Z,39.69
2024-05-09T08:44:44.769Z,39.30
2024-05-09T08:45:52.095Z,39.64
2024-05-09T08:46:54.202Z,39.40
2024-05-09T08:47:59.602Z,38.77
2024-05-09T08:49:03.430Z,39.05
2024-05-09T08:50:13.584Z,38.99
2024-05-09T08:51:18.824Z,38.81
2024-05-09T08:52:22.954Z,39.05
2024-05-09T08:53:27.437Z,38.45
2024-05-09T08:54:30.699Z,39.20
2024-05-09T08:55:32.721Z,39.14
2024-05-09T08:56:39.296Z,39.13
2024-05-09T08:57:41.625Z,39.31
2024-05-09T08:58:48.153Z,39.18
2024-05-09T08:59:55.861Z,39.25
2024-05-09T09:01:00.467Z,39.36
2024-05-09T09:02:04.804Z,39.02
2024-05-09T09:03:09.817Z,39.09
2024-05-09T09:04:13.907Z,39.11
2024-05-09T09:05:17.432Z,38.24
2024-05-09T09:06:21.918Z,38.92
2024-05-09T09:07:28.657Z,39.51
2024-05-09T09:08:30.687Z,38.91
2024-05-09T09:09:33.021Z,38.80
2024-05-09T09:10:35.434Z,38.23
2024-05-09T09:11:37.699Z,38.10
2024-05-09T09:12:40.734Z,38.42
2024-05-09T09:13:42.629Z,37.85
2024-05-09T09:14:44.658Z,38.28
2024-05-09T09:15:50.365Z,37.88
2024-05-09T09:16:53.230Z,37.61
2024-05-09T09:17:59.483Z,37.61
2024-05-09T09:19:04.345Z,36.41
2024-05-09T09:20:14.484Z,36.96
2024-05-09T09:21:22.162Z,36.72
2024-05-09T09:22:24.018Z,36.79
2024-05-09T09:23:30.557Z,37.07
2024-05-09T09:24:32.809Z,37.15
2024-05-09T09:25:35.061Z,37.32
2024-05-09T09:26:36.906Z,36.60
2024-05-09T09:27:39.455Z,36.59
2024-05-09T09:28:41.435Z,36.34
2024-05-09T09:29:43.359Z,36.25
2024-05-09T09:30:46.022Z,36.55
2024-05-09T09:31:58.301Z,36.72
2024-05-09T09:33:00.119Z,36.44
2024-05-09T09:34:07.528Z,36.26
2024-05-09T09:35:09.722Z,36.13
2024-05-09T09:36:14.613Z,35.50
2024-05-09T09:37:20.992Z,35.47
2024-05-09T09:38:23.957Z,35.56
2024-05-09T09:39:28.591Z,35.83
2024-05-09T09:40:37.550Z,36.15
2024-05-09T09:41:47.819Z,35.69
2024-05-09T09:42:50.453Z,35.39
2024-05-09T09:43:53.641Z,35.70
2024-05-09T09:45:04.439Z,35.46
2024-05-09T09:46:12.292Z,35.33
2024-05-09T09:47:20.951Z,34.99
2024-05-09T09:48:26.605Z,34.60
2024-05-09T09:49:32.341Z,34.49
2024-05-09T09:50:35.671Z,35.14
2024-05-09T09:51:43.569Z,34.76
2024-05-09T09:52:46.631Z,34.43
2024-05-09T09:53:50.581Z,34.31
2024-05-09T09:54:54.096Z,33.76
2024-05-09T09:55:57.158Z,34.00
2024-05-09T09:56:59.935Z,33.57
2024-05-09T09:58:06.462Z,33.76
2024-05-09T09:59:10.081Z,33.86
2024-05-09T10:02:24.126Z,34.27
2024-05-09T10:03:27.457Z,34.29
2024-05-09T10:04:31.063Z,34.56
2024-05-09T10:05:34.285Z,34.21
2024-05-09T10:06:42.727Z,34.01
2024-05-09T10:07:46.787Z,34.32
2024-05-09T10:08:49.642Z,33.88
2024-05-09T10:09:56.211Z,34.33
2024-05-09T10:10:58.338Z,34.05
2024-05-09T10:12:12.526Z,33.72
2024-05-09T10:13:16.929Z,33.84
2024-05-09T10:14:22.330Z,33.68
2024-05-09T10:15:24.187Z,34.34
2024-05-09T10:16:31.168Z,34.29
2024-05-09T10:17:34.010Z,34.14
2024-05-09T10:18:37.191Z,33.56
2024-05-09T10:19:39.341Z,33.73
2024-05-09T10:20:46.180Z,33.62
2024-05-09T10:21:48.109Z,33.96
2024-05-09T10:22:52.446Z,33.94
2024-05-09T10:23:57.678Z,33.74
2024-05-09T10:25:09.556Z,33.54
2024-05-09T10:26:16.040Z,33.09
2024-05-09T10:27:28.556Z,33.19
2024-05-09T10:28:35.569Z,33.85
2024-05-09T10:29:37.876Z,34.11
2024-05-09T10:30:40.042Z,34.10
2024-05-09T10:31:45.900Z,34.58
2024-05-09T10:32:53.678Z,34.22
2024-05-09T10:33:56.173Z,34.81
2024-05-09T10:35:06.632Z,34.09
2024-05-09T10:36:12.953Z,34.69
2024-05-09T10:37:14.985Z,34.75
2024-05-09T10:38:19.869Z,34.69
2024-05-09T10:39:22.169Z,34.64
2024-05-09T10:40:29.365Z,35.24
2024-05-09T10:41:33.757Z,34.90
2024-05-09T10:42:39.251Z,35.25
2024-05-09T10:43:42.043Z,35.24
2024-05-09T10:44:43.844Z,35.54
2024-05-09T10:45:45.874Z,35.08
2024-05-09T10:46:50.787Z,35.56
2024-05-09T10:47:52.858Z,35.57
2024-05-09T10:48:55.148Z,35.86
2024-05-09T10:49:57.320Z,35.75
2024-05-09T10:51:01.992Z,35.44
2024-05-09T10:52:08.627Z,35.12
2024-05-09T10:53:10.586Z,35.63
2024-05-09T10:54:12.574Z,35.63
2024-05-09T10:55:14.658Z,35.58
2024-05-09T10:56:17.532Z,35.02
2024-05-09T10:57:20.372Z,35.69
2024-05-09T10:58:22.543Z,36.05
2024-05-09T10:59:33.023Z,36.04
2024-05-09T11:00:37.721Z,35.58
2024-05-09T11:01:40.538Z,35.60
2024-05-09T11:02:44.236Z,35.54
2024-05-09T11:03:49.920Z,35.61
2024-05-09T11:04:53.188Z,35.62
2024-05-09T11:05:58.052Z,35.98
2024-05-09T11:07:05.280Z,36.14
2024-05-09T11:08:10.964Z,36.25
2024-05-09T11:09:15.451Z,36.17
2024-05-09T11:10:24.900Z,35.97
2024-05-09T11:11:30.213Z,36.17
2024-05-09T11:12:32.378Z,36.88
2024-05-09T11:13:36.110Z,36.11
2024-05-09T11:14:38.030Z,36.48
2024-05-09T11:15:45.180Z,36.37
2024-05-09T11:16:47.170Z,36.31
2024-05-09T11:17:51.555Z,36.45
2024-05-09T11:18:55.932Z,36.38
2024-05-09T11:20:00.674Z,36.08
2024-05-09T11:21:03.497Z,36.18
2024-05-09T11:22:06.184Z,36.11
2024-05-09T11:23:08.301Z,36.47
2024-05-09T11:24:11.579Z,36.18
2024-05-09T11:25:15.980Z,36.60
2024-05-09T11:26:22.342Z,35.93
2024-05-09T11:27:26.747Z,36.20
2024-05-09T11:28:30.541Z,35.90
2024-05-09T11:29:39.554Z,35.63
2024-05-09T11:30:43.710Z,35.85
2024-05-09T11:31:46.956Z,35.70
2024-05-09T11:32:49.320Z,35.96
2024-05-09T11:33:54.671Z,35.85
2024-05-09T11:34:56.728Z,36.05
2024-05-09T11:36:00.753Z,36.46
2024-05-09T11:37:04.548Z,35.88
2024-05-09T11:38:06.644Z,36.25
2024-05-09T11:39:09.153Z,35.70
2024-05-09T11:40:17.073Z,35.44
2024-05-09T11:41:27.287Z,35.98
2024-05-09T11:42:29.174Z,35.67
2024-05-09T11:43:31.650Z,35.54
2024-05-09T11:44:33.637Z,35.37
2024-05-09T11:45:35.559Z,35.66
2024-05-09T11:46:37.647Z,35.51
2024-05-09T11:47:39.879Z,35.45
2024-05-09T11:48:41.984Z,35.55
2024-05-09T11:49:44.188Z,35.30
2024-05-09T11:50:46.126Z,34.97
2024-05-09T11:51:48.049Z,35.12
2024-05-09T11:52:49.942Z,35.34
2024-05-09T11:53:54.168Z,35.40
2024-05-09T11:54:56.176Z,35.51
2024-05-09T11:55:58.119Z,35.24
2024-05-09T11:57:02.382Z,35.45
2024-05-09T11:58:04.986Z,35.39
2024-05-09T11:59:09.736Z,35.72
2024-05-09T12:00:18.192Z,35.85
2024-05-09T12:01:27.999Z,35.51
2024-05-09T12:02:30.389Z,35.23
2024-05-09T12:03:35.433Z,35.54
2024-05-09T12:04:37.569Z,35.86
2024-05-09T12:05:39.814Z,35.66
2024-05-09T12:06:41.782Z,35.92
2024-05-09T12:07:43.772Z,35.05
2024-05-09T12:08:45.800Z,35.75
2024-05-09T12:09:47.721Z,35.39
2024-05-09T12:10:49.988Z,34.79
2024-05-09T12:11:52.204Z,34.96
2024-05-09T12:12:54.103Z,34.91
2024-05-09T12:13:55.944Z,35.06
2024-05-09T12:14:57.870Z,35.20
2024-05-09T12:15:59.848Z,34.14
2024-05-09T12:17:03.824Z,34.16
2024-05-09T12:18:07.154Z,33.60
2024-05-09T12:19:09.988Z,33.99
2024-05-09T12:20:21.011Z,33.92
2024-05-09T12:21:30.476Z,33.86
2024-05-09T12:22:34.719Z,33.19
2024-05-09T12:23:41.203Z,33.43
2024-05-09T12:24:45.569Z,32.74
2024-05-09T12:25:47.579Z,32.63
2024-05-09T12:26:49.584Z,32.85
2024-05-09T12:27:51.904Z,33.00
2024-05-09T12:28:53.899Z,33.33
2024-05-09T12:29:55.784Z,32.70
2024-05-09T12:30:57.791Z,33.04
2024-05-09T12:32:00.038Z,33.23
2024-05-09T12:33:04.794Z,33.01
2024-05-09T12:34:07.036Z,33.08
2024-05-09T12:35:08.927Z,33.42
2024-05-09T12:36:11.063Z,32.99
2024-05-09T12:37:13.915Z,33.59
2024-05-09T12:38:20.794Z,33.58
2024-05-09T12:39:22.675Z,33.02
2024-05-09T12:40:35.416Z,32.82
2024-05-09T12:41:39.914Z,33.02
2024-05-09T12:42:41.966Z,33.36
2024-05-09T12:43:44.084Z,32.61
2024-05-09T12:44:46.010Z,32.20
2024-05-09T12:45:47.891Z,31.54
2024-05-09T12:46:50.002Z,32.14
2024-05-09T12:47:54.215Z,32.11
2024-05-09T12:48:56.481Z,32.07
2024-05-09T12:49:58.809Z,32.04
2024-05-09T12:51:02.940Z,31.43
2024-05-09T12:52:05.125Z,31.62
2024-05-09T12:53:07.186Z,31.51
2024-05-09T12:54:11.330Z,31.88
2024-05-09T12:55:15.540Z,31.88
2024-05-09T12:56:17.607Z,31.90
2024-05-09T12:57:19.558Z,31.55
2024-05-09T12:58:22.617Z,31.29
2024-05-09T12:59:24.823Z,31.57
2024-05-09T13:02:23.032Z,32.20
2024-05-09T13:03:25.487Z,32.39
2024-05-09T13:04:27.434Z,32.51
2024-05-09T13:05:32.408Z,32.51
2024-05-09T13:06:34.605Z,32.34
2024-05-09T13:07:38.862Z,32.39
2024-05-09T13:08:40.836Z,32.37
2024-05-09T13:09:45.440Z,32.13
2024-05-09T13:10:48.058Z,31.79
2024-05-09T13:11:50.046Z,32.06
2024-05-09T13:12:52.681Z,32.10
2024-05-09T13:13:54.665Z,31.82
2024-05-09T13:14:56.547Z,31.98
2024-05-09T13:15:58.622Z,32.77
2024-05-09T13:17:00.654Z,32.69
2024-05-09T13:18:04.063Z,32.53
2024-05-09T13:19:06.152Z,32.21
2024-05-09T13:20:12.007Z,32.77
2024-05-09T13:21:20.386Z,32.17
2024-05-09T13:22:23.722Z,32.03
2024-05-09T13:23:25.610Z,32.20
2024-05-09T13:24:27.516Z,32.11
2024-05-09T13:25:29.627Z,31.73
2024-05-09T13:26:34.134Z,31.68
2024-05-09T13:27:36.178Z,31.76
2024-05-09T13:28:38.106Z,31.98
2024-05-09T13:29:42.812Z,32.36
2024-05-09T13:30:46.083Z,32.66
2024-05-09T13:31:48.050Z,32.43
2024-05-09T13:32:50.000Z,32.52
2024-05-09T13:33:52.231Z,31.80
2024-05-09T13:34:55.373Z,31.61
2024-05-09T13:35:57.250Z,31.72
2024-05-09T13:37:01.761Z,32.05
2024-05-09T13:38:04.793Z,32.14
2024-05-09T13:39:07.261Z,32.67
2024-05-09T13:40:12.138Z,31.73
2024-05-09T13:41:16.306Z,32.19
2024-05-09T13:42:18.144Z,32.38
2024-05-09T13:43:23.443Z,32.15
2024-05-09T13:44:25.464Z,31.60
2024-05-09T13:45:30.555Z,31.75
2024-05-09T13:46:32.928Z,31.03
2024-05-09T13:47:35.120Z,31.12
2024-05-09T13:48:37.248Z,31.23
2024-05-09T13:49:39.324Z,31.03
2024-05-09T13:50:41.583Z,31.28
2024-05-09T13:51:43.619Z,31.55
2024-05-09T13:52:45.451Z,31.49
2024-05-09T13:53:47.394Z,31.44
2024-05-09T13:54:49.417Z,31.49
2024-05-09T13:55:51.559Z,31.41
2024-05-09T13:56:53.645Z,31.52
2024-05-09T13:57:56.015Z,31.50